Colorado Springs Aviation Decision Support Information(Rapid Prototype)

Last Page Refresh(page does not auto refresh):
000
FTUS45 KPUB 212329
TAFCOS
TAF
KCOS 212329Z 2200/2224 18008KT P6SM SCT100 BKN200
     FM220300 36006KT P6SM BKN090
     FM221200 VRB06KT P6SM SCT090 BKN130
     FM221800 15008KT P6SM SCT090 BKN150
     FM222100 16014KT P6SM VCSH BKN090=

Please provide any comments or suggestion to the web master email addresse below.


USA.gov is the U.S. government's official web portal to all federal, state and local government web resources and services.